Terminal Aerodrome Forecast
Issued by NWS

Home | Current Version | Previous Version | Text Only | Print | Product List | Glossary On
Versions: 1 2 3 4 5 6 7 8 9 10 11 12 13 14 15
000
FTUS46 KSGX 011736
TAFONT
TAF
KONT 011736Z 0118/0224 22004KT P6SM SCT200
     FM012100 25011G18KT P6SM BKN200
     FM020400 VRB05KT P6SM SKC
     FM020800 VRB04KT P6SM BKN015
     FM021530 21004KT P6SM SCT015
     FM022100 23011G19KT P6SM SKC=

USA.gov is the U.S. government's official web portal to all federal, state and local government web resources and services.